Terminal Aerodrome Forecast
Issued by NWS

Home | Current Version | Previous Version | Text Only | Print | Product List | Glossary On
Versions: 1 2 3 4 5 6 7 8 9 10 11 12 13 14 15
000
FTUS43 KOAX 190715 RRA
TAFBFF
TAF
KBFF 190715Z 1907/2006 09007KT P6SM SKC
     FM191500 15018G28KT P6SM SCT250
     FM200200 12014KT P6SM BKN150=

USA.gov is the U.S. government's official web portal to all federal, state and local government web resources and services.